Flugplatz Coleman (ETOR)

Hier findest Du alle Informationen zum Flugplatz Coleman (ETOR).

Informationen für Piloten zum Flugplatz Coleman

Hier findest Du alle relevanten Informationen, die Du als Pilot benötigst, um Coleman anzufliegen.

Flugplatz: Coleman ICAO-Code: ETOR
Frequenz Turm: - GAFOR Gebiet: -
Frequenz Ground: - Mogas: nein
Platzrunde: - Landegebühr: -
Platzhöhe: Sunrise: 05:54 Uhr UTC
Pisten: Sunset: 16:27 Uhr UTC

Flugwetter am Flugplatz Coleman

Die METAR Information stammen aus EDFM (10.77 km entfernt).

METAR Code:
2020/10/19 19:20
EDFM 191920Z VRB02KT CAVOK 06/03 Q1020

Temperatur: 6,0 °C Niederschlag: - Wind: 4,1 kt
Temperatur (min.): 4,4 °C Luftdruck: 1015 hPa Windrichtung: 140 °
Temperatur (max.): 7,0 °C Luftfeuchtigkeit: 81 % Bewölkung: 8/8

Flugschulen am Flugplatz Coleman

Am Flugplatz Coleman gibt es leider keine Flugschule.

Benachbarte Flugplätze und Flugschulen

Es gibt 21 weitere Flugplätze in einem Umkreis von 50 km um den Flugplatz Coleman.

Jetzt anmelden

Passwort vergessen

Umfrage Archiv

Wären Rettungsgeräte keine Pflicht mehr, würdet Ihr Euer UL trotzdem mit einem ausstatten?

Ja
86.3 %
Nein
13.7 %
Stimmen: 351 | Diskussion
Anzeige: Roland Aircraft
Statistik Alle Mitglieder

Aktuell sind 42 Besucher online, davon 1 Mitglied und 41 Gäste.


Mitglieder online:
Moskito_Andi 

Anzeige: VFR Sprechfunk Simulator


Anzeige: Pocket FMS